Time;durP1;ratioP1;P1;durP2;ratioP2;P2;SDS_P1;SDS_P2;PMS_P1;PMS_P2;Temp;Humidity;BMP_temperature;BMP_pressure;BME280_temperature;BME280_humidity;BME280_pressure;Samples;Min_cycle;Max_cycle;Signal;HPM_P1;HPM_P2
2021/05/01 00:00:09;;;;;;;32.30;15.93;;;;;;;;;;773220;179;919814;-70
2021/05/01 00:02:35;;;;;;;28.53;18.70;;;;;;;;;;768589;178;919469;-74
2021/05/01 00:05:01;;;;;;;25.70;18.00;;;;;;;;;;771682;178;628396;-71
2021/05/01 00:07:27;;;;;;;31.03;21.47;;;;;;;;;;773425;182;635528;-70
2021/05/01 00:09:53;;;;;;;37.80;20.67;;;;;;;;;;767820;179;1308462;-73
2021/05/01 00:12:19;;;;;;;28.00;19.10;;;;;;;;;;769972;179;619984;-73
2021/05/01 00:14:45;;;;;;;30.87;20.60;;;;;;;;;;771348;180;620862;-74
2021/05/01 00:17:11;;;;;;;27.63;19.23;;;;;;;;;;767516;179;623227;-72
2021/05/01 00:19:36;;;;;;;26.17;18.40;;;;;;;;;;767983;179;918675;-72
2021/05/01 00:22:02;;;;;;;27.57;19.43;;;;;;;;;;764682;179;927266;-73
2021/05/01 00:24:28;;;;;;;33.33;20.43;;;;;;;;;;768169;182;626032;-71
2021/05/01 00:26:54;;;;;;;25.37;17.47;;;;;;;;;;765269;179;918751;-74
2021/05/01 00:29:20;;;;;;;28.27;18.05;;;;;;;;;;761850;179;1103431;-71
2021/05/01 00:31:46;;;;;;;28.10;19.20;;;;;;;;;;769789;179;918489;-72
2021/05/01 00:34:12;;;;;;;30.63;20.87;;;;;;;;;;766290;179;918119;-74
2021/05/01 00:36:38;;;;;;;28.27;19.70;;;;;;;;;;769799;179;630964;-71
2021/05/01 00:39:05;;;;;;;31.00;18.83;;;;;;;;;;771221;179;623051;-70
2021/05/01 00:41:31;;;;;;;33.33;20.53;;;;;;;;;;769289;179;923549;-70
2021/05/01 00:43:57;;;;;;;33.03;23.50;;;;;;;;;;766423;179;775229;-72
2021/05/01 00:46:23;;;;;;;30.03;20.00;;;;;;;;;;766859;180;910323;-71
2021/05/01 00:48:49;;;;;;;32.87;21.90;;;;;;;;;;764552;179;698284;-69
2021/05/01 00:51:15;;;;;;;36.30;22.47;;;;;;;;;;764172;180;918213;-70
2021/05/01 00:53:41;;;;;;;28.98;19.95;;;;;;;;;;759949;182;919780;-72
2021/05/01 00:56:06;;;;;;;31.20;22.10;;;;;;;;;;771683;182;919292;-72
2021/05/01 00:58:39;;;;;;;33.10;23.00;;;;;;;;;;762769;179;919496;-75
2021/05/01 01:01:16;;;;;;;30.00;21.03;;;;;;;;;;753013;179;919365;-71
2021/05/01 01:03:33;;;;;;;28.17;21.00;;;;;;;;;;765375;182;627688;-70
2021/05/01 01:05:59;;;;;;;38.77;21.27;;;;;;;;;;769878;179;627047;-72
2021/05/01 01:08:25;;;;;;;26.83;18.90;;;;;;;;;;763572;179;919187;-64
2021/05/01 01:10:51;;;;;;;34.30;22.90;;;;;;;;;;760458;179;1000870;-65
2021/05/01 01:13:16;;;;;;;37.43;22.27;;;;;;;;;;765282;182;918828;-65
2021/05/01 01:15:42;;;;;;;32.50;24.60;;;;;;;;;;770905;181;628280;-66
2021/05/01 01:18:09;;;;;;;35.78;23.33;;;;;;;;;;770377;179;884427;-66
2021/05/01 01:20:35;;;;;;;35.10;24.27;;;;;;;;;;767667;182;919033;-66
2021/05/01 01:23:01;;;;;;;46.87;26.17;;;;;;;;;;763714;182;918967;-66
2021/05/01 01:25:26;;;;;;;37.00;26.40;;;;;;;;;;763841;179;918038;-68
2021/05/01 01:27:52;;;;;;;37.57;23.50;;;;;;;;;;764807;182;919568;-67
2021/05/01 01:30:19;;;;;;;36.00;25.10;;;;;;;;;;766853;179;815305;-66
2021/05/01 01:32:45;;;;;;;37.20;25.17;;;;;;;;;;765036;179;919180;-66
2021/05/01 01:35:10;;;;;;;38.38;25.70;;;;;;;;;;762186;179;1202008;-69
2021/05/01 01:37:36;;;;;;;46.97;28.70;;;;;;;;;;771118;182;622858;-67
2021/05/01 01:40:02;;;;;;;39.47;26.20;;;;;;;;;;765761;179;1021632;-66
2021/05/01 01:42:28;;;;;;;41.00;25.73;;;;;;;;;;761786;179;914079;-68
2021/05/01 01:44:54;;;;;;;41.60;28.03;;;;;;;;;;772278;182;917401;-69
2021/05/01 01:47:20;;;;;;;35.67;24.37;;;;;;;;;;759816;179;920750;-68
2021/05/01 01:49:46;;;;;;;41.77;27.70;;;;;;;;;;764053;179;919803;-68
2021/05/01 01:52:11;;;;;;;41.33;28.75;;;;;;;;;;761763;182;919150;-69
2021/05/01 01:54:37;;;;;;;45.77;29.70;;;;;;;;;;762582;180;1082909;-70
2021/05/01 01:57:03;;;;;;;45.67;29.70;;;;;;;;;;758569;182;915153;-70
2021/05/01 01:59:29;;;;;;;43.83;29.50;;;;;;;;;;766217;179;916994;-70
2021/05/01 02:01:56;;;;;;;53.87;32.50;;;;;;;;;;761169;179;915949;-68
2021/05/01 02:04:22;;;;;;;44.80;29.00;;;;;;;;;;762764;181;1021846;-70
2021/05/01 02:06:47;;;;;;;49.90;31.40;;;;;;;;;;760835;181;919061;-68
2021/05/01 02:09:13;;;;;;;46.83;30.10;;;;;;;;;;767251;179;917699;-70
2021/05/01 02:11:39;;;;;;;47.47;30.20;;;;;;;;;;760304;182;920258;-70
2021/05/01 02:14:04;;;;;;;48.00;31.27;;;;;;;;;;759014;179;918477;-68
2021/05/01 02:16:32;;;;;;;48.60;31.03;;;;;;;;;;762704;179;924496;-72
2021/05/01 02:19:00;;;;;;;57.53;35.30;;;;;;;;;;768724;182;917397;-70
2021/05/01 02:21:25;;;;;;;49.33;32.17;;;;;;;;;;765342;179;919638;-70
2021/05/01 02:23:51;;;;;;;50.83;35.03;;;;;;;;;;763221;179;919289;-71
2021/05/01 02:26:17;;;;;;;48.97;30.73;;;;;;;;;;771883;180;919176;-69
2021/05/01 02:28:43;;;;;;;49.43;31.80;;;;;;;;;;758391;178;919347;-70
2021/05/01 02:31:09;;;;;;;52.00;30.25;;;;;;;;;;766554;178;920170;-70
2021/05/01 02:33:35;;;;;;;52.47;31.27;;;;;;;;;;771310;178;915198;-71
2021/05/01 02:36:00;;;;;;;45.77;30.73;;;;;;;;;;766659;179;915829;-70
2021/05/01 02:38:26;;;;;;;52.40;35.70;;;;;;;;;;762290;179;915429;-70
2021/05/01 02:40:52;;;;;;;54.67;33.60;;;;;;;;;;763138;182;913784;-71
2021/05/01 02:43:18;;;;;;;51.00;31.37;;;;;;;;;;765155;179;918895;-72
2021/05/01 02:45:44;;;;;;;49.23;31.67;;;;;;;;;;766901;179;918945;-69
2021/05/01 02:48:10;;;;;;;47.50;31.83;;;;;;;;;;751160;186;918601;-72
2021/05/01 02:50:36;;;;;;;54.13;33.27;;;;;;;;;;767838;182;919400;-70
2021/05/01 02:53:01;;;;;;;50.10;30.67;;;;;;;;;;763987;179;920015;-69
2021/05/01 02:55:27;;;;;;;48.37;31.53;;;;;;;;;;764521;179;919343;-71
2021/05/01 02:57:53;;;;;;;37.53;22.77;;;;;;;;;;770995;182;918525;-70
2021/05/01 03:00:19;;;;;;;46.77;28.93;;;;;;;;;;762540;179;918232;-70
2021/05/01 03:02:45;;;;;;;52.10;30.83;;;;;;;;;;766135;179;918639;-70
2021/05/01 03:05:11;;;;;;;45.37;31.57;;;;;;;;;;765770;180;1149696;-69
2021/05/01 03:07:37;;;;;;;42.80;27.57;;;;;;;;;;765256;179;993488;-71
2021/05/01 03:10:04;;;;;;;41.67;22.40;;;;;;;;;;761705;179;918730;-70
2021/05/01 03:12:30;;;;;;;46.50;30.33;;;;;;;;;;765058;179;919470;-69
2021/05/01 03:14:56;;;;;;;54.77;30.30;;;;;;;;;;766086;179;912661;-71
2021/05/01 03:17:22;;;;;;;52.20;30.10;;;;;;;;;;763378;179;919779;-70
2021/05/01 03:19:48;;;;;;;44.38;28.92;;;;;;;;;;756018;179;918478;-69
2021/05/01 03:22:13;;;;;;;50.83;29.93;;;;;;;;;;767491;182;919618;-69
2021/05/01 03:24:41;;;;;;;48.17;29.60;;;;;;;;;;762788;179;1069706;-71
2021/05/01 03:27:05;;;;;;;49.00;29.83;;;;;;;;;;767712;179;623269;-72
2021/05/01 03:29:31;;;;;;;51.88;29.85;;;;;;;;;;771063;179;901651;-71
2021/05/01 03:31:57;;;;;;;46.50;30.63;;;;;;;;;;766947;179;977421;-71
2021/05/01 03:34:23;;;;;;;53.80;31.50;;;;;;;;;;765713;179;917744;-70
2021/05/01 03:36:49;;;;;;;48.43;28.13;;;;;;;;;;768079;178;918689;-71
2021/05/01 03:39:16;;;;;;;51.47;29.30;;;;;;;;;;768359;178;613959;-69
2021/05/01 03:41:40;;;;;;;53.55;30.17;;;;;;;;;;768737;178;634425;-70
2021/05/01 03:44:06;;;;;;;46.43;31.23;;;;;;;;;;770468;179;621892;-70
2021/05/01 03:46:32;;;;;;;49.37;28.70;;;;;;;;;;766939;178;614624;-71
2021/05/01 03:48:58;;;;;;;44.50;28.63;;;;;;;;;;769188;182;632553;-71
2021/05/01 03:51:24;;;;;;;48.30;30.92;;;;;;;;;;765248;179;918539;-69
2021/05/01 03:53:50;;;;;;;49.60;30.43;;;;;;;;;;770491;179;919083;-70
2021/05/01 03:56:15;;;;;;;40.20;24.90;;;;;;;;;;761998;179;919680;-70
2021/05/01 03:58:41;;;;;;;47.07;31.30;;;;;;;;;;765591;179;919325;-72
2021/05/01 04:01:07;;;;;;;42.97;24.43;;;;;;;;;;769787;179;625766;-69
2021/05/01 04:03:33;;;;;;;49.70;32.33;;;;;;;;;;770641;179;621974;-70
2021/05/01 04:05:59;;;;;;;49.53;30.43;;;;;;;;;;766522;179;723745;-71
2021/05/01 04:08:25;;;;;;;57.37;32.30;;;;;;;;;;765424;179;918982;-69
2021/05/01 04:10:51;;;;;;;45.50;28.30;;;;;;;;;;769493;182;918897;-70
2021/05/01 04:13:16;;;;;;;51.60;33.90;;;;;;;;;;763028;179;918960;-71
2021/05/01 04:15:42;;;;;;;47.67;29.90;;;;;;;;;;763961;179;919523;-68
2021/05/01 04:18:11;;;;;;;50.93;31.90;;;;;;;;;;762692;182;919159;-70
2021/05/01 04:20:37;;;;;;;51.10;29.90;;;;;;;;;;766559;179;919451;-69
2021/05/01 04:23:03;;;;;;;40.20;25.97;;;;;;;;;;759784;179;918260;-70
2021/05/01 04:25:29;;;;;;;42.00;23.50;;;;;;;;;;763564;182;918502;-70
2021/05/01 04:27:54;;;;;;;50.47;32.43;;;;;;;;;;764511;182;816743;-72
2021/05/01 04:30:20;;;;;;;54.10;29.83;;;;;;;;;;768305;179;911936;-71
2021/05/01 04:32:47;;;;;;;46.30;30.60;;;;;;;;;;761236;179;1037395;-70
2021/05/01 04:35:12;;;;;;;55.87;31.47;;;;;;;;;;758292;186;917672;-71
2021/05/01 04:37:38;;;;;;;44.43;24.63;;;;;;;;;;765947;179;917818;-74
2021/05/01 04:40:04;;;;;;;53.70;35.33;;;;;;;;;;767732;179;917418;-70
2021/05/01 04:42:30;;;;;;;51.53;30.97;;;;;;;;;;764991;182;919702;-70
2021/05/01 04:44:56;;;;;;;51.13;31.23;;;;;;;;;;765750;179;918118;-70
2021/05/01 04:47:25;;;;;;;59.30;33.40;;;;;;;;;;764516;179;919205;-69
2021/05/01 04:49:52;;;;;;;57.10;34.80;;;;;;;;;;763466;179;919172;-71
2021/05/01 04:52:18;;;;;;;52.20;32.80;;;;;;;;;;766817;179;1021079;-70
2021/05/01 04:54:44;;;;;;;48.92;32.08;;;;;;;;;;769677;179;918520;-69
2021/05/01 04:57:09;;;;;;;56.03;30.50;;;;;;;;;;765029;178;816797;-70
2021/05/01 04:59:35;;;;;;;60.37;34.63;;;;;;;;;;770412;179;626401;-70
2021/05/01 05:02:01;;;;;;;59.87;34.67;;;;;;;;;;773292;179;636062;-70
2021/05/01 05:04:27;;;;;;;44.60;25.80;;;;;;;;;;753239;182;918259;-69
2021/05/01 05:06:53;;;;;;;52.40;31.63;;;;;;;;;;770835;179;919621;-69
2021/05/01 05:09:19;;;;;;;48.73;31.67;;;;;;;;;;763150;180;917889;-71
2021/05/01 05:11:44;;;;;;;48.22;30.20;;;;;;;;;;752843;183;918404;-71
2021/05/01 05:14:10;;;;;;;51.07;33.30;;;;;;;;;;768151;179;917154;-70
2021/05/01 05:16:36;;;;;;;53.08;31.92;;;;;;;;;;766244;179;919260;-69
2021/05/01 05:19:02;;;;;;;53.10;32.10;;;;;;;;;;762122;179;1072159;-70
2021/05/01 05:21:28;;;;;;;49.20;33.17;;;;;;;;;;765244;179;920335;-69
2021/05/01 05:23:54;;;;;;;49.53;30.58;;;;;;;;;;769030;179;916198;-71
2021/05/01 05:26:22;;;;;;;49.37;31.73;;;;;;;;;;766474;179;918897;-70
2021/05/01 05:28:46;;;;;;;51.70;30.13;;;;;;;;;;763485;179;919009;-69
2021/05/01 05:31:12;;;;;;;46.40;30.90;;;;;;;;;;759960;182;919300;-71
2021/05/01 05:33:38;;;;;;;55.33;35.13;;;;;;;;;;765105;179;919463;-69
2021/05/01 05:36:04;;;;;;;51.00;31.00;;;;;;;;;;762717;179;922487;-72
2021/05/01 05:38:29;;;;;;;50.27;32.97;;;;;;;;;;770007;179;919606;-69
2021/05/01 05:40:55;;;;;;;52.08;37.13;;;;;;;;;;757674;179;918853;-69
2021/05/01 05:43:21;;;;;;;50.73;33.97;;;;;;;;;;768590;179;919214;-69
2021/05/01 05:45:47;;;;;;;49.90;30.10;;;;;;;;;;759416;179;915349;-69
2021/05/01 05:48:13;;;;;;;51.73;31.97;;;;;;;;;;765144;179;918401;-72
2021/05/01 05:50:39;;;;;;;52.03;33.87;;;;;;;;;;763908;179;921152;-69
2021/05/01 05:53:05;;;;;;;56.03;39.40;;;;;;;;;;760779;179;918548;-70
2021/05/01 05:55:30;;;;;;;58.47;34.90;;;;;;;;;;765707;179;919162;-69
2021/05/01 05:57:56;;;;;;;58.90;35.95;;;;;;;;;;767325;182;883897;-70
2021/05/01 06:00:22;;;;;;;48.47;29.23;;;;;;;;;;765680;178;1393840;-70
2021/05/01 06:02:48;;;;;;;58.43;32.20;;;;;;;;;;766182;179;918993;-68
2021/05/01 06:05:15;;;;;;;49.45;30.23;;;;;;;;;;762231;182;898920;-70
2021/05/01 06:07:41;;;;;;;51.30;33.03;;;;;;;;;;766402;178;918851;-69
2021/05/01 06:10:07;;;;;;;56.47;35.27;;;;;;;;;;767301;178;919365;-71
2021/05/01 06:12:33;;;;;;;43.90;30.77;;;;;;;;;;756299;179;918052;-69
2021/05/01 06:14:59;;;;;;;48.37;33.03;;;;;;;;;;763128;179;1023692;-70
2021/05/01 06:17:24;;;;;;;48.53;29.45;;;;;;;;;;761807;179;919192;-71
2021/05/01 06:19:52;;;;;;;44.00;28.30;;;;;;;;;;770614;179;919261;-71
2021/05/01 06:22:16;;;;;;;45.25;31.23;;;;;;;;;;757686;179;1200880;-69
2021/05/01 06:24:42;;;;;;;50.23;31.13;;;;;;;;;;759442;182;876961;-71
2021/05/01 06:27:08;;;;;;;60.93;34.53;;;;;;;;;;768549;179;906772;-69
2021/05/01 06:29:34;;;;;;;53.47;30.57;;;;;;;;;;766660;179;822790;-71
2021/05/01 06:31:59;;;;;;;52.63;33.73;;;;;;;;;;763824;182;647781;-71
2021/05/01 06:34:25;;;;;;;46.93;31.60;;;;;;;;;;772259;179;635037;-71
2021/05/01 06:36:51;;;;;;;52.37;35.33;;;;;;;;;;764467;179;634538;-70
2021/05/01 06:39:18;;;;;;;58.53;37.47;;;;;;;;;;766908;179;616029;-69
2021/05/01 06:41:48;;;;;;;65.30;38.63;;;;;;;;;;768786;179;625316;-70
2021/05/01 06:44:11;;;;;;;59.87;36.13;;;;;;;;;;768091;180;715951;-71
2021/05/01 06:46:35;;;;;;;79.47;44.27;;;;;;;;;;764609;179;918723;-70
2021/05/01 06:49:03;;;;;;;67.70;39.13;;;;;;;;;;765292;182;870377;-70
2021/05/01 06:51:29;;;;;;;67.03;40.17;;;;;;;;;;770868;179;636902;-70
2021/05/01 06:53:55;;;;;;;57.83;39.30;;;;;;;;;;764646;180;649608;-70
2021/05/01 06:56:21;;;;;;;52.83;32.73;;;;;;;;;;767630;179;629555;-72
2021/05/01 06:58:46;;;;;;;60.30;36.57;;;;;;;;;;768717;179;635649;-71
2021/05/01 07:01:12;;;;;;;68.33;36.23;;;;;;;;;;755929;182;643040;-72
2021/05/01 07:03:43;;;;;;;60.20;38.40;;;;;;;;;;766371;179;625485;-70
2021/05/01 07:06:08;;;;;;;53.27;30.10;;;;;;;;;;767033;179;627038;-75
2021/05/01 07:08:34;;;;;;;57.10;38.43;;;;;;;;;;760269;179;2032170;-72
2021/05/01 07:11:01;;;;;;;56.97;35.70;;;;;;;;;;768819;179;624494;-71
2021/05/01 07:13:25;;;;;;;64.67;38.73;;;;;;;;;;767139;178;637738;-70
2021/05/01 07:15:52;;;;;;;55.33;30.90;;;;;;;;;;774339;182;619712;-70
2021/05/01 07:18:20;;;;;;;68.00;36.97;;;;;;;;;;763832;179;617001;-69
2021/05/01 07:20:46;;;;;;;61.07;37.47;;;;;;;;;;767900;178;666527;-68
2021/05/01 07:23:12;;;;;;;56.60;37.07;;;;;;;;;;767148;179;630681;-67
2021/05/01 07:25:38;;;;;;;56.73;37.57;;;;;;;;;;770248;179;634061;-67
2021/05/01 07:28:05;;;;;;;81.53;43.00;;;;;;;;;;768554;179;618326;-68
2021/05/01 07:30:30;;;;;;;65.50;39.40;;;;;;;;;;761873;179;1515279;-67
2021/05/01 07:32:56;;;;;;;68.40;41.67;;;;;;;;;;772483;179;629503;-67
2021/05/01 07:35:22;;;;;;;69.97;45.40;;;;;;;;;;767157;182;634111;-70
2021/05/01 07:37:49;;;;;;;73.87;44.30;;;;;;;;;;769483;179;641017;-68
2021/05/01 07:40:15;;;;;;;71.50;45.77;;;;;;;;;;770570;179;626624;-66
2021/05/01 07:42:42;;;;;;;76.77;47.20;;;;;;;;;;766637;179;638047;-66
2021/05/01 07:45:09;;;;;;;75.50;45.57;;;;;;;;;;766262;179;629300;-66
2021/05/01 07:47:35;;;;;;;71.93;44.87;;;;;;;;;;767313;179;619315;-66
2021/05/01 07:50:00;;;;;;;69.00;39.97;;;;;;;;;;766689;179;629039;-66
2021/05/01 07:52:30;;;;;;;67.97;39.07;;;;;;;;;;768302;181;677089;-66
2021/05/01 07:54:52;;;;;;;69.73;42.50;;;;;;;;;;764444;180;645448;-65
2021/05/01 07:57:18;;;;;;;95.77;50.50;;;;;;;;;;772427;179;621937;-66
2021/05/01 07:59:44;;;;;;;80.17;48.73;;;;;;;;;;767389;179;637434;-66
2021/05/01 08:02:10;;;;;;;100.03;53.10;;;;;;;;;;766503;179;624820;-67
2021/05/01 08:04:36;;;;;;;85.80;49.57;;;;;;;;;;770433;182;627314;-68
2021/05/01 08:07:01;;;;;;;79.87;44.80;;;;;;;;;;765063;179;616574;-67
2021/05/01 08:09:27;;;;;;;82.93;49.90;;;;;;;;;;769964;179;630075;-67
2021/05/01 08:11:53;;;;;;;87.33;51.77;;;;;;;;;;759542;179;634461;-68
2021/05/01 08:14:19;;;;;;;71.90;42.97;;;;;;;;;;774062;179;671175;-67
2021/05/01 08:16:45;;;;;;;76.20;43.00;;;;;;;;;;768167;179;717500;-69
2021/05/01 08:19:11;;;;;;;67.27;43.47;;;;;;;;;;769941;179;624054;-69
2021/05/01 08:21:36;;;;;;;70.37;41.10;;;;;;;;;;770244;179;620672;-69
2021/05/01 08:24:03;;;;;;;67.10;41.70;;;;;;;;;;769567;180;632411;-70
2021/05/01 08:26:29;;;;;;;63.87;39.47;;;;;;;;;;762992;182;919092;-71
2021/05/01 08:28:55;;;;;;;60.20;35.50;;;;;;;;;;771834;179;920086;-70
2021/05/01 08:31:21;;;;;;;68.97;39.77;;;;;;;;;;762412;179;919306;-68
2021/05/01 08:33:46;;;;;;;65.60;39.33;;;;;;;;;;765662;179;924427;-69
2021/05/01 08:36:13;;;;;;;71.00;41.70;;;;;;;;;;763126;182;919292;-69
2021/05/01 08:38:39;;;;;;;63.97;32.57;;;;;;;;;;758363;180;919182;-73
2021/05/01 08:41:05;;;;;;;65.47;35.20;;;;;;;;;;767175;179;814833;-72
2021/05/01 08:43:30;;;;;;;59.87;36.97;;;;;;;;;;755909;182;634237;-71
2021/05/01 08:46:12;;;;;;;72.12;51.88;;;;;;;;;;789846;172;707154;-69
2021/05/01 08:48:30;;;;;;;70.53;43.57;;;;;;;;;;770215;180;920268;-71
2021/05/01 08:50:56;;;;;;;70.73;42.67;;;;;;;;;;778589;180;626967;-66
2021/05/01 08:53:22;;;;;;;64.77;42.87;;;;;;;;;;772370;179;918412;-66
2021/05/01 08:55:48;;;;;;;59.37;38.50;;;;;;;;;;779644;180;919864;-68
2021/05/01 08:58:14;;;;;;;67.80;41.30;;;;;;;;;;771143;179;926739;-69
2021/05/01 09:00:40;;;;;;;60.93;39.10;;;;;;;;;;773047;180;918995;-73
2021/05/01 09:03:06;;;;;;;68.37;42.20;;;;;;;;;;771670;177;1074118;-68
2021/05/01 09:05:31;;;;;;;62.00;39.80;;;;;;;;;;778675;178;918721;-69
2021/05/01 09:07:57;;;;;;;53.73;34.47;;;;;;;;;;774924;180;924107;-71
2021/05/01 09:10:24;;;;;;;76.03;38.17;;;;;;;;;;778633;180;918693;-68
2021/05/01 09:12:49;;;;;;;62.53;40.30;;;;;;;;;;770356;180;1014419;-68
2021/05/01 09:15:19;;;;;;;65.30;41.43;;;;;;;;;;777726;177;919082;-68
2021/05/01 09:17:44;;;;;;;58.50;38.73;;;;;;;;;;777508;177;629946;-69
2021/05/01 09:20:11;;;;;;;62.87;41.17;;;;;;;;;;777969;178;620927;-69
2021/05/01 09:22:42;;;;;;;68.73;43.57;;;;;;;;;;776364;178;615792;-67
2021/05/01 09:25:08;;;;;;;63.70;39.27;;;;;;;;;;771489;177;1257342;-69
2021/05/01 09:27:34;;;;;;;66.47;41.00;;;;;;;;;;780288;178;617993;-69
2021/05/01 09:30:06;;;;;;;54.93;34.57;;;;;;;;;;773532;177;628811;-70
2021/05/01 09:32:32;;;;;;;60.37;40.20;;;;;;;;;;777428;178;630214;-68
2021/05/01 09:34:58;;;;;;;72.12;38.63;;;;;;;;;;770589;180;937733;-69
2021/05/01 09:37:23;;;;;;;95.97;49.47;;;;;;;;;;779126;180;624702;-69
2021/05/01 09:39:50;;;;;;;68.60;43.92;;;;;;;;;;769743;180;914033;-69
2021/05/01 09:42:16;;;;;;;61.50;39.97;;;;;;;;;;770636;179;636763;-68
2021/05/01 09:44:42;;;;;;;64.60;32.70;;;;;;;;;;775105;178;940163;-71
2021/05/01 09:47:12;;;;;;;48.77;33.80;;;;;;;;;;774344;178;879926;-70
2021/05/01 09:49:38;;;;;;;66.33;42.33;;;;;;;;;;768684;180;917349;-69
2021/05/01 09:52:07;;;;;;;61.20;37.10;;;;;;;;;;772358;179;918839;-72
2021/05/01 09:54:33;;;;;;;64.30;41.13;;;;;;;;;;776810;180;918665;-70
2021/05/01 09:56:59;;;;;;;50.80;32.33;;;;;;;;;;773269;179;922483;-73
2021/05/01 09:59:31;;;;;;;58.10;38.50;;;;;;;;;;773079;179;919645;-70
2021/05/01 10:01:58;;;;;;;64.80;38.37;;;;;;;;;;775884;180;919610;-72
2021/05/01 10:04:23;;;;;;;68.17;41.10;;;;;;;;;;782238;177;916514;-71
2021/05/01 10:06:49;;;;;;;62.43;39.93;;;;;;;;;;769958;177;1146672;-70
2021/05/01 10:09:20;;;;;;;62.00;40.37;;;;;;;;;;777951;177;913744;-72
2021/05/01 10:11:46;;;;;;;61.63;40.50;;;;;;;;;;773535;180;914950;-67
2021/05/01 10:14:12;;;;;;;70.43;40.00;;;;;;;;;;775940;180;625820;-72
2021/05/01 10:16:37;;;;;;;70.00;43.20;;;;;;;;;;773121;177;706835;-70
2021/05/01 10:19:04;;;;;;;64.40;40.33;;;;;;;;;;777566;180;667713;-69
2021/05/01 10:21:30;;;;;;;49.33;31.60;;;;;;;;;;777949;180;631941;-68
2021/05/01 10:23:56;;;;;;;64.90;40.40;;;;;;;;;;770836;178;918486;-69
2021/05/01 10:26:22;;;;;;;62.53;39.13;;;;;;;;;;772319;178;911338;-69
2021/05/01 10:28:49;;;;;;;63.57;42.27;;;;;;;;;;776316;181;923005;-69
2021/05/01 10:31:13;;;;;;;59.80;40.03;;;;;;;;;;769885;178;1110551;-71
2021/05/01 10:33:41;;;;;;;73.25;41.03;;;;;;;;;;772708;179;918126;-69
2021/05/01 10:36:09;;;;;;;69.17;48.40;;;;;;;;;;771943;179;916054;-69
2021/05/01 10:38:34;;;;;;;62.73;40.27;;;;;;;;;;772602;179;918339;-71
2021/05/01 10:41:01;;;;;;;59.87;41.90;;;;;;;;;;769969;180;918306;-69
2021/05/01 10:43:27;;;;;;;62.10;37.20;;;;;;;;;;771074;178;1019151;-69
2021/05/01 10:45:53;;;;;;;68.13;44.40;;;;;;;;;;778961;178;916818;-73
2021/05/01 10:48:19;;;;;;;70.43;39.93;;;;;;;;;;772045;178;918986;-68
2021/05/01 10:50:45;;;;;;;64.30;44.00;;;;;;;;;;772255;178;916843;-71
2021/05/01 10:53:16;;;;;;;63.93;40.10;;;;;;;;;;774000;180;1038737;-72
2021/05/01 10:55:41;;;;;;;68.97;45.50;;;;;;;;;;777190;180;625375;-69
2021/05/01 10:58:07;;;;;;;64.17;45.80;;;;;;;;;;770312;179;918807;-70
2021/05/01 11:00:40;;;;;;;61.50;42.57;;;;;;;;;;774632;180;619510;-70
2021/05/01 11:03:06;;;;;;;68.50;38.23;;;;;;;;;;778380;180;613488;-71
2021/05/01 11:05:32;;;;;;;61.83;38.60;;;;;;;;;;777334;179;926824;-71
2021/05/01 11:08:13;;;;;;;66.07;41.10;;;;;;;;;;772293;178;914524;-70
2021/05/01 11:10:38;;;;;;;63.63;40.77;;;;;;;;;;775357;178;918482;-72
2021/05/01 11:13:04;;;;;;;60.87;43.00;;;;;;;;;;769453;181;1823827;-72
2021/05/01 11:15:30;;;;;;;70.30;43.90;;;;;;;;;;771809;180;919180;-72
2021/05/01 11:18:01;;;;;;;73.53;41.13;;;;;;;;;;771270;180;919265;-71
2021/05/01 11:20:27;;;;;;;59.03;39.53;;;;;;;;;;774388;180;919629;-71
2021/05/01 11:22:53;;;;;;;61.00;37.80;;;;;;;;;;777400;178;905486;-71
2021/05/01 11:25:19;;;;;;;72.90;42.27;;;;;;;;;;774247;177;918575;-73
2021/05/01 11:27:45;;;;;;;57.50;40.37;;;;;;;;;;772339;178;1020786;-72
2021/05/01 11:30:11;;;;;;;57.17;40.97;;;;;;;;;;776769;177;914811;-69
2021/05/01 11:32:37;;;;;;;58.63;40.90;;;;;;;;;;774232;178;922970;-71
2021/05/01 11:35:03;;;;;;;63.00;41.70;;;;;;;;;;774830;180;635373;-70
2021/05/01 11:37:29;;;;;;;63.17;40.73;;;;;;;;;;774184;180;916455;-70
2021/05/01 11:39:55;;;;;;;65.80;40.00;;;;;;;;;;776359;179;914396;-70
2021/05/01 11:42:21;;;;;;;58.93;39.20;;;;;;;;;;772151;180;919614;-71
2021/05/01 11:44:47;;;;;;;66.30;42.27;;;;;;;;;;768835;178;912712;-72
2021/05/01 11:47:13;;;;;;;59.30;38.87;;;;;;;;;;776011;180;1014338;-71
2021/05/01 11:49:39;;;;;;;62.83;38.30;;;;;;;;;;769675;180;919493;-70
2021/05/01 11:52:07;;;;;;;57.45;36.45;;;;;;;;;;770915;180;919254;-71
2021/05/01 11:54:33;;;;;;;66.20;41.90;;;;;;;;;;774802;181;917405;-69
2021/05/01 11:57:02;;;;;;;66.03;42.77;;;;;;;;;;771571;180;919762;-72
2021/05/01 11:59:28;;;;;;;62.00;39.77;;;;;;;;;;768606;178;971389;-73
2021/05/01 12:02:00;;;;;;;65.30;46.10;;;;;;;;;;771037;181;919351;-71
2021/05/01 12:04:25;;;;;;;56.90;40.03;;;;;;;;;;774615;180;919164;-71
2021/05/01 12:06:51;;;;;;;60.07;41.97;;;;;;;;;;771676;180;814361;-73
2021/05/01 12:09:18;;;;;;;61.80;39.57;;;;;;;;;;775829;181;632923;-73
2021/05/01 12:11:43;;;;;;;60.53;41.90;;;;;;;;;;773750;177;629247;-71
2021/05/01 12:14:09;;;;;;;61.07;38.77;;;;;;;;;;775420;178;621513;-72
2021/05/01 12:16:35;;;;;;;59.10;40.40;;;;;;;;;;775441;177;633324;-74
2021/05/01 12:19:01;;;;;;;54.30;37.80;;;;;;;;;;768559;180;636814;-71
2021/05/01 12:21:28;;;;;;;62.73;40.00;;;;;;;;;;753546;186;835708;-72
2021/05/01 12:23:55;;;;;;;59.30;41.90;;;;;;;;;;748886;186;918697;-71
2021/05/01 12:26:40;;;;;;;50.93;34.10;;;;;;;;;;747642;186;918541;-72
2021/05/01 12:29:12;;;;;;;60.97;41.60;;;;;;;;;;774708;177;918176;-71
2021/05/01 12:31:41;;;;;;;61.10;42.70;;;;;;;;;;771224;178;914882;-74
2021/05/01 12:34:06;;;;;;;62.20;41.27;;;;;;;;;;777127;179;918919;-71
2021/05/01 12:36:32;;;;;;;62.50;39.33;;;;;;;;;;771377;180;920393;-73
2021/05/01 12:38:58;;;;;;;55.23;40.73;;;;;;;;;;770859;178;1018594;-73
2021/05/01 12:41:25;;;;;;;62.10;40.60;;;;;;;;;;775582;180;919272;-73
2021/05/01 12:43:50;;;;;;;54.83;31.90;;;;;;;;;;770912;181;919281;-72
2021/05/01 12:46:17;;;;;;;56.00;36.87;;;;;;;;;;771260;177;919450;-70
2021/05/01 12:48:43;;;;;;;56.90;42.07;;;;;;;;;;773858;177;947869;-70
2021/05/01 12:51:09;;;;;;;56.00;35.70;;;;;;;;;;768750;179;618454;-73
2021/05/01 12:53:35;;;;;;;61.30;40.33;;;;;;;;;;774219;177;626533;-68
2021/05/01 12:56:07;;;;;;;49.87;33.27;;;;;;;;;;770202;179;729249;-68
2021/05/01 12:58:33;;;;;;;61.13;40.50;;;;;;;;;;777413;180;674435;-70
2021/05/01 13:00:58;;;;;;;63.60;45.33;;;;;;;;;;776969;177;648981;-70
2021/05/01 13:03:24;;;;;;;59.83;38.43;;;;;;;;;;775489;177;625836;-71
2021/05/01 13:05:50;;;;;;;69.80;44.67;;;;;;;;;;778040;178;642226;-70
2021/05/01 13:08:21;;;;;;;57.30;41.67;;;;;;;;;;764492;180;2505684;-73
2021/05/01 13:10:47;;;;;;;59.43;41.57;;;;;;;;;;769655;179;919327;-72
2021/05/01 13:13:14;;;;;;;52.87;40.17;;;;;;;;;;773910;180;618397;-72
2021/05/01 13:15:44;;;;;;;68.67;45.90;;;;;;;;;;776935;178;918459;-68
2021/05/01 13:18:12;;;;;;;53.57;32.17;;;;;;;;;;773074;177;625075;-71
2021/05/01 13:20:36;;;;;;;70.93;46.23;;;;;;;;;;775313;180;899492;-74
2021/05/01 13:23:02;;;;;;;78.90;47.20;;;;;;;;;;772360;180;918032;-74
2021/05/01 13:25:28;;;;;;;61.53;43.20;;;;;;;;;;777817;180;918797;-72
2021/05/01 13:27:54;;;;;;;65.40;44.30;;;;;;;;;;769514;180;932001;-73
2021/05/01 13:30:21;;;;;;;71.07;46.63;;;;;;;;;;767629;179;919664;-70
2021/05/01 13:32:47;;;;;;;63.30;44.67;;;;;;;;;;779546;178;919342;-69
2021/05/01 13:35:13;;;;;;;57.90;37.10;;;;;;;;;;767365;177;919054;-72
2021/05/01 13:37:39;;;;;;;60.80;46.73;;;;;;;;;;777125;177;918474;-71
2021/05/01 13:40:05;;;;;;;60.53;43.30;;;;;;;;;;778793;180;918567;-70
2021/05/01 13:42:32;;;;;;;72.33;48.20;;;;;;;;;;770921;181;920583;-72
2021/05/01 13:44:57;;;;;;;67.80;45.60;;;;;;;;;;771095;180;918671;-72
2021/05/01 13:47:23;;;;;;;67.10;45.60;;;;;;;;;;772040;180;935522;-73
2021/05/01 13:49:49;;;;;;;60.30;41.23;;;;;;;;;;778424;177;1013539;-72
2021/05/01 13:52:29;;;;;;;68.57;44.83;;;;;;;;;;777517;180;653598;-71
2021/05/01 13:54:55;;;;;;;74.10;49.80;;;;;;;;;;770498;178;919705;-70
2021/05/01 13:57:27;;;;;;;71.27;49.50;;;;;;;;;;775731;178;623529;-73